Terminal Aerodrome Forecast
Issued by NWS

Home | Current Version | Previous Version | Text Only | Print | Product List | Glossary On
Versions: 1 2 3 4 5 6 7 8 9 10 11 12 13 14
000
FTUS43 KAPX 251306 AAA
TAFMBL
TAF AMD
KMBL 251306Z 2513/2612 32006KT P6SM SCT200
     FM260000 VRB03KT P6SM BKN250
     FM260400 13004KT 3SM SHRA BR BKN060
     FM260600 14004KT 2SM SHRA BR OVC012
      AMD LTD TO CLD VIS AND WIND=

USA.gov is the U.S. government's official web portal to all federal, state and local government web resources and services.